createdAt,value
2017-12-20T00:00:45.166Z,91.81
2017-12-20T00:03:12.878Z,92.12
2017-12-20T00:05:40.600Z,92.17
2017-12-20T00:08:08.362Z,92.11
2017-12-20T00:10:36.057Z,92.01
2017-12-20T00:13:03.757Z,92.07
2017-12-20T00:15:31.491Z,91.83
2017-12-20T00:17:59.218Z,91.37
2017-12-20T00:20:26.969Z,91.46
2017-12-20T00:22:54.719Z,92.39
2017-12-20T00:25:22.494Z,92.61
2017-12-20T00:27:50.272Z,92.31
2017-12-20T00:30:17.958Z,92.30
2017-12-20T00:32:45.646Z,92.17
2017-12-20T00:35:13.387Z,92.10
2017-12-20T00:37:41.384Z,92.19
2017-12-20T00:40:09.112Z,91.94
2017-12-20T00:42:36.845Z,91.64
2017-12-20T00:45:04.655Z,91.96
2017-12-20T00:47:32.409Z,91.83
2017-12-20T00:50:00.156Z,91.31
2017-12-20T00:52:27.892Z,91.11
2017-12-20T00:54:55.713Z,91.04
2017-12-20T00:57:23.406Z,90.55
2017-12-20T00:59:51.118Z,90.36
2017-12-20T01:02:18.873Z,89.87
2017-12-20T01:04:46.584Z,90.27
2017-12-20T01:07:14.377Z,90.44
2017-12-20T01:09:42.089Z,90.16
2017-12-20T01:12:10.009Z,90.22
2017-12-20T01:14:37.692Z,90.18
2017-12-20T01:17:05.428Z,90.24
2017-12-20T01:19:33.158Z,90.64
2017-12-20T01:22:00.865Z,90.67
2017-12-20T01:24:28.662Z,91.15
2017-12-20T01:26:56.326Z,91.82
2017-12-20T01:29:24.084Z,91.86
2017-12-20T01:31:51.900Z,91.56
2017-12-20T01:34:19.593Z,91.74
2017-12-20T01:36:47.323Z,92.15
2017-12-20T01:39:15.068Z,91.44
2017-12-20T01:41:42.766Z,90.62
2017-12-20T01:44:10.491Z,90.75
2017-12-20T01:46:38.244Z,90.30
2017-12-20T01:49:05.947Z,90.27
2017-12-20T01:51:33.752Z,91.32
2017-12-20T01:54:01.518Z,91.80
2017-12-20T01:56:29.283Z,91.66
2017-12-20T01:58:57.062Z,91.24
2017-12-20T02:01:24.786Z,91.02
2017-12-20T02:03:52.522Z,91.62
2017-12-20T02:06:21.013Z,91.50
2017-12-20T02:08:48.740Z,91.86
2017-12-20T02:11:16.523Z,91.09
2017-12-20T02:13:44.443Z,90.77
2017-12-20T02:16:12.188Z,90.45
2017-12-20T02:18:39.885Z,90.62
2017-12-20T02:21:07.718Z,91.39
2017-12-20T02:23:35.476Z,92.18
2017-12-20T02:26:03.426Z,92.75
2017-12-20T02:28:31.144Z,91.91
2017-12-20T02:30:58.929Z,91.47
2017-12-20T02:33:38.377Z,91.55
2017-12-20T02:36:07.306Z,90.91
2017-12-20T02:38:37.514Z,91.15
2017-12-20T02:41:08.793Z,91.01
2017-12-20T02:43:37.514Z,91.17
2017-12-20T02:46:05.511Z,91.41
2017-12-20T02:48:33.309Z,91.91
2017-12-20T02:51:01.427Z,91.58
2017-12-20T02:53:29.208Z,91.28
2017-12-20T02:55:56.942Z,91.17
2017-12-20T02:58:24.710Z,91.45
2017-12-20T03:00:52.573Z,91.69
2017-12-20T03:03:20.371Z,92.31
2017-12-20T03:05:48.143Z,92.39
2017-12-20T03:08:15.885Z,92.08
2017-12-20T03:10:43.595Z,91.44
2017-12-20T03:13:11.371Z,91.33
2017-12-20T03:15:39.100Z,91.31
2017-12-20T03:18:06.899Z,91.23
2017-12-20T03:20:34.597Z,91.12
2017-12-20T03:23:02.353Z,90.93
2017-12-20T03:25:30.098Z,91.59
2017-12-20T03:27:57.789Z,92.47
2017-12-20T03:30:25.606Z,92.70
2017-12-20T03:32:53.336Z,92.68
2017-12-20T03:35:21.071Z,93.23
2017-12-20T03:37:48.801Z,92.82
2017-12-20T03:40:16.495Z,91.98
2017-12-20T03:42:44.266Z,91.42
2017-12-20T03:45:11.973Z,91.00
2017-12-20T03:47:39.727Z,90.87
2017-12-20T03:50:07.429Z,91.47
2017-12-20T03:52:35.225Z,91.93
2017-12-20T03:55:03.054Z,91.85
2017-12-20T03:57:30.735Z,92.05
2017-12-20T03:59:58.511Z,92.50
2017-12-20T04:02:26.290Z,92.58
2017-12-20T04:04:54.016Z,91.88
2017-12-20T04:07:21.692Z,91.43
2017-12-20T04:09:49.465Z,91.71
2017-12-20T04:12:17.336Z,92.36
2017-12-20T04:14:45.022Z,92.49
2017-12-20T04:17:12.735Z,92.20
2017-12-20T04:19:40.504Z,92.30
2017-12-20T04:22:08.197Z,91.66
2017-12-20T04:24:36.094Z,91.59
2017-12-20T04:27:03.852Z,91.39
2017-12-20T04:29:31.537Z,91.30
2017-12-20T04:31:59.273Z,91.42
2017-12-20T04:34:27.116Z,91.25
2017-12-20T04:36:54.790Z,91.64
2017-12-20T04:39:22.499Z,91.54
2017-12-20T04:41:50.232Z,91.77
2017-12-20T04:44:17.963Z,91.12
2017-12-20T04:46:45.627Z,90.68
2017-12-20T04:49:13.372Z,90.88
2017-12-20T04:51:41.064Z,90.77
2017-12-20T04:54:08.788Z,91.05
2017-12-20T04:56:36.529Z,91.20
2017-12-20T04:59:04.295Z,91.77
2017-12-20T05:01:31.994Z,92.41
2017-12-20T05:03:59.750Z,92.49
2017-12-20T05:06:27.503Z,92.34
2017-12-20T05:08:55.238Z,92.27
2017-12-20T05:11:22.924Z,91.83
2017-12-20T05:13:50.620Z,91.49
2017-12-20T05:16:18.424Z,91.63
2017-12-20T05:18:46.162Z,91.68
2017-12-20T05:21:13.877Z,91.91
2017-12-20T05:23:41.741Z,92.23
2017-12-20T05:26:09.498Z,91.64
2017-12-20T05:28:37.236Z,91.35
2017-12-20T05:31:05.090Z,91.50
2017-12-20T05:33:32.808Z,91.23
2017-12-20T05:36:00.556Z,90.90
2017-12-20T05:38:28.299Z,91.79
2017-12-20T05:40:56.196Z,91.99
2017-12-20T05:43:24.167Z,91.70
2017-12-20T05:45:51.884Z,91.66
2017-12-20T05:48:19.661Z,91.67
2017-12-20T05:50:47.438Z,92.03
2017-12-20T05:53:15.125Z,91.60
2017-12-20T05:55:42.865Z,91.47
2017-12-20T05:58:10.574Z,91.44
2017-12-20T06:00:38.329Z,91.27
2017-12-20T06:03:06.048Z,91.15
2017-12-20T06:05:33.741Z,91.23
2017-12-20T06:08:01.417Z,91.50
2017-12-20T06:10:29.156Z,91.16
2017-12-20T06:12:56.897Z,91.26
2017-12-20T06:15:24.576Z,91.34
2017-12-20T06:17:52.315Z,91.26
2017-12-20T06:20:20.046Z,91.76
2017-12-20T06:22:47.814Z,91.55
2017-12-20T06:25:15.575Z,91.33
2017-12-20T06:27:43.339Z,90.97
2017-12-20T06:30:11.064Z,91.20
2017-12-20T06:32:38.755Z,91.85
2017-12-20T06:35:06.501Z,91.64
2017-12-20T06:37:34.241Z,91.37
2017-12-20T06:40:01.996Z,91.58
2017-12-20T06:42:29.803Z,92.19
2017-12-20T06:44:57.550Z,92.20
2017-12-20T06:47:25.250Z,91.98
2017-12-20T06:49:52.959Z,91.72
2017-12-20T06:52:20.635Z,91.64
2017-12-20T06:54:48.397Z,92.24
2017-12-20T06:57:16.098Z,92.84
2017-12-20T06:59:43.836Z,93.16
2017-12-20T07:02:11.658Z,92.66
2017-12-20T07:04:39.384Z,92.21
2017-12-20T07:07:07.118Z,92.10
2017-12-20T07:09:34.888Z,92.09
2017-12-20T07:12:02.672Z,92.26
2017-12-20T07:14:30.394Z,92.29
2017-12-20T07:16:58.152Z,92.68
2017-12-20T07:19:25.878Z,92.76
2017-12-20T07:21:53.639Z,92.29
2017-12-20T07:24:21.350Z,91.82
2017-12-20T07:26:49.181Z,91.69
2017-12-20T07:29:16.987Z,92.03
2017-12-20T07:31:44.761Z,91.68
2017-12-20T07:34:12.495Z,91.71
2017-12-20T07:36:40.454Z,91.30
2017-12-20T07:39:08.752Z,91.03
2017-12-20T07:41:36.525Z,91.13
2017-12-20T07:44:04.455Z,91.58
2017-12-20T07:46:32.209Z,91.35
2017-12-20T07:48:59.947Z,91.37
2017-12-20T07:51:27.633Z,91.44
2017-12-20T07:53:55.365Z,91.69
2017-12-20T07:56:23.039Z,91.90
2017-12-20T07:58:50.876Z,91.59
2017-12-20T08:01:18.609Z,91.16
2017-12-20T08:03:46.303Z,90.75
2017-12-20T08:06:14.044Z,90.57
2017-12-20T08:08:41.921Z,90.87
2017-12-20T08:11:09.620Z,91.22
2017-12-20T08:13:37.378Z,90.97
2017-12-20T08:16:05.112Z,90.95
2017-12-20T08:18:32.924Z,90.66
2017-12-20T08:21:00.668Z,90.90
2017-12-20T08:23:28.455Z,91.16
2017-12-20T08:25:56.253Z,90.64
2017-12-20T08:28:24.833Z,90.19
2017-12-20T08:30:52.666Z,90.13
2017-12-20T08:33:20.492Z,89.84
2017-12-20T08:35:48.224Z,89.13
2017-12-20T08:38:15.946Z,89.27
2017-12-20T08:40:43.712Z,89.74
2017-12-20T08:43:11.461Z,89.43
2017-12-20T08:45:39.192Z,89.66
2017-12-20T08:48:06.932Z,89.72
2017-12-20T08:50:34.637Z,89.48
2017-12-20T08:53:02.397Z,89.09
2017-12-20T08:55:30.100Z,89.18
2017-12-20T08:57:57.860Z,88.20
2017-12-20T09:00:25.769Z,88.11
2017-12-20T09:02:53.571Z,87.21
2017-12-20T09:05:21.321Z,86.48
2017-12-20T09:07:49.038Z,87.93
2017-12-20T09:10:16.819Z,88.69
2017-12-20T09:12:45.316Z,88.14
2017-12-20T09:15:13.093Z,88.63
2017-12-20T09:17:40.787Z,89.41
2017-12-20T09:20:08.644Z,89.43
2017-12-20T09:22:36.426Z,89.25
2017-12-20T09:25:04.227Z,88.85
2017-12-20T09:27:31.936Z,87.72
2017-12-20T09:29:59.705Z,87.69
2017-12-20T09:32:27.468Z,86.96
2017-12-20T09:34:55.224Z,85.56
2017-12-20T09:37:23.004Z,85.37
2017-12-20T09:39:50.793Z,84.57
2017-12-20T09:42:18.530Z,83.98
2017-12-20T09:44:46.261Z,83.76
2017-12-20T09:47:13.999Z,84.62
2017-12-20T09:49:41.672Z,86.01
2017-12-20T09:52:09.432Z,86.08
2017-12-20T09:54:37.172Z,85.57
2017-12-20T09:57:04.949Z,85.58
2017-12-20T09:59:32.673Z,85.29
2017-12-20T10:02:00.408Z,85.76
2017-12-20T10:04:28.154Z,85.61
2017-12-20T10:06:55.910Z,84.58
2017-12-20T10:09:23.671Z,83.57
2017-12-20T10:11:51.470Z,84.53
2017-12-20T10:14:19.201Z,84.89
2017-12-20T10:16:46.966Z,85.01
2017-12-20T10:19:14.683Z,85.24
2017-12-20T10:21:42.455Z,84.50
2017-12-20T10:24:10.141Z,83.50
2017-12-20T10:26:38.392Z,82.58
2017-12-20T10:29:06.123Z,82.07
2017-12-20T10:31:33.818Z,82.20
2017-12-20T10:34:01.586Z,80.46
2017-12-20T10:36:29.296Z,80.60
2017-12-20T10:38:57.097Z,80.79
2017-12-20T10:41:24.830Z,80.66
2017-12-20T10:43:52.538Z,80.29
2017-12-20T10:46:21.237Z,80.65
2017-12-20T10:48:49.009Z,80.42
2017-12-20T10:51:16.775Z,80.23
2017-12-20T10:53:44.508Z,83.00
2017-12-20T10:56:12.301Z,83.38
2017-12-20T10:58:40.081Z,82.82
2017-12-20T11:01:07.845Z,83.00
2017-12-20T11:03:35.635Z,82.58
2017-12-20T11:06:03.600Z,82.81
2017-12-20T11:08:31.320Z,82.31
2017-12-20T11:10:59.187Z,81.78
2017-12-20T11:13:26.901Z,80.84
2017-12-20T11:15:55.740Z,81.65
2017-12-20T11:18:23.430Z,82.33
2017-12-20T11:20:51.243Z,80.75
2017-12-20T11:23:18.991Z,80.60
2017-12-20T11:25:46.729Z,81.48
2017-12-20T11:28:14.516Z,81.97
2017-12-20T11:30:42.316Z,80.68
2017-12-20T11:33:10.109Z,79.88
2017-12-20T11:35:38.045Z,78.12
2017-12-20T11:38:05.813Z,78.41
2017-12-20T11:40:33.593Z,77.53
2017-12-20T11:43:01.405Z,76.66
2017-12-20T11:45:29.150Z,73.26
2017-12-20T11:47:56.965Z,73.72
2017-12-20T11:50:24.717Z,73.86
2017-12-20T11:52:52.425Z,73.18
2017-12-20T11:55:20.164Z,73.36
2017-12-20T11:57:47.986Z,73.73
2017-12-20T12:00:15.950Z,71.57
2017-12-20T12:02:43.679Z,70.03
2017-12-20T12:05:11.430Z,68.82
2017-12-20T12:07:39.179Z,68.21
2017-12-20T12:10:06.872Z,65.87
2017-12-20T12:12:34.618Z,66.40
2017-12-20T12:15:02.412Z,64.66
2017-12-20T12:17:30.172Z,68.23
2017-12-20T12:19:57.854Z,70.69
2017-12-20T12:22:25.608Z,73.24
2017-12-20T12:24:53.341Z,74.90
2017-12-20T12:27:21.098Z,77.08
2017-12-20T12:29:48.863Z,75.65
2017-12-20T12:32:16.564Z,76.02
2017-12-20T12:34:44.275Z,75.05
2017-12-20T12:37:12.040Z,77.47
2017-12-20T12:39:39.813Z,77.05
2017-12-20T12:42:07.585Z,76.55
2017-12-20T12:44:35.351Z,76.32
2017-12-20T12:47:03.039Z,76.04
2017-12-20T12:49:30.770Z,76.58
2017-12-20T12:51:58.552Z,77.75
2017-12-20T12:54:26.360Z,78.36
2017-12-20T12:56:54.177Z,77.73
2017-12-20T12:59:22.022Z,76.83
2017-12-20T13:01:49.763Z,77.43
2017-12-20T13:04:17.521Z,78.01
2017-12-20T13:06:45.239Z,78.26
2017-12-20T13:09:13.254Z,78.21
2017-12-20T13:11:41.789Z,78.73
2017-12-20T13:14:09.562Z,78.56
2017-12-20T13:16:37.345Z,79.53
2017-12-20T13:19:05.103Z,78.38
2017-12-20T13:21:32.903Z,78.48
2017-12-20T13:24:00.626Z,78.52
2017-12-20T13:26:28.427Z,79.15
2017-12-20T13:28:56.125Z,78.89
2017-12-20T13:31:23.878Z,79.13
2017-12-20T13:33:51.577Z,79.32
2017-12-20T13:36:19.334Z,78.97
2017-12-20T13:38:47.043Z,79.20
2017-12-20T13:41:14.843Z,79.83
2017-12-20T13:43:42.746Z,79.66
2017-12-20T13:46:10.528Z,79.89
2017-12-20T13:48:38.384Z,80.53
2017-12-20T13:51:06.349Z,80.77
2017-12-20T13:53:34.084Z,81.17
2017-12-20T13:56:01.819Z,81.51
2017-12-20T13:58:29.651Z,81.45
2017-12-20T14:00:57.417Z,81.23
2017-12-20T14:03:25.186Z,80.93
2017-12-20T14:05:52.884Z,81.57
2017-12-20T14:08:20.616Z,81.35
2017-12-20T14:10:48.327Z,80.88
2017-12-20T14:13:16.167Z,80.36
2017-12-20T14:15:43.945Z,80.81
2017-12-20T14:18:11.655Z,81.50
2017-12-20T14:20:39.482Z,82.22
2017-12-20T14:23:07.225Z,81.91
2017-12-20T14:25:34.971Z,82.06
2017-12-20T14:28:02.730Z,81.80
2017-12-20T14:30:30.480Z,81.51
2017-12-20T14:32:58.152Z,81.61
2017-12-20T14:35:25.904Z,81.59
2017-12-20T14:37:53.807Z,82.59
2017-12-20T14:40:21.577Z,82.07
2017-12-20T14:42:49.321Z,82.32
2017-12-20T14:45:17.036Z,82.26
2017-12-20T14:47:44.757Z,81.66
2017-12-20T14:50:12.547Z,83.69
2017-12-20T14:52:40.458Z,82.78
2017-12-20T14:55:08.259Z,83.11
2017-12-20T14:57:36.140Z,82.99
2017-12-20T15:00:03.904Z,83.23
2017-12-20T15:02:31.708Z,82.97
2017-12-20T15:04:59.527Z,82.97
2017-12-20T15:07:27.358Z,83.14
2017-12-20T15:09:55.117Z,83.37
2017-12-20T15:12:22.866Z,83.81
2017-12-20T15:14:50.610Z,84.13
2017-12-20T15:17:18.432Z,84.62
2017-12-20T15:19:46.285Z,85.72
2017-12-20T15:22:14.019Z,85.21
2017-12-20T15:24:41.790Z,85.34
2017-12-20T15:27:09.481Z,87.29
2017-12-20T15:29:37.228Z,87.19
2017-12-20T15:32:04.982Z,86.85
2017-12-20T15:34:32.878Z,86.51
2017-12-20T15:37:00.679Z,86.58
2017-12-20T15:39:28.435Z,86.58
2017-12-20T15:41:56.284Z,86.63
2017-12-20T15:44:24.007Z,86.62
2017-12-20T15:46:51.829Z,86.40
2017-12-20T15:49:19.633Z,86.60
2017-12-20T15:51:47.349Z,87.28
2017-12-20T15:54:15.150Z,88.42
2017-12-20T15:56:42.871Z,87.62
2017-12-20T15:59:10.637Z,86.96
2017-12-20T16:01:38.448Z,86.61
2017-12-20T16:04:07.198Z,86.59
2017-12-20T16:06:34.998Z,87.15
2017-12-20T16:09:02.827Z,87.44
2017-12-20T16:11:30.731Z,87.51
2017-12-20T16:16:24.096Z,88.01
2017-12-20T16:18:51.908Z,88.06
2017-12-20T16:21:19.756Z,87.72
2017-12-20T16:23:47.600Z,87.88
2017-12-20T16:26:15.336Z,87.76
2017-12-20T16:28:43.108Z,87.28
2017-12-20T16:31:10.894Z,87.53
2017-12-20T16:33:38.855Z,87.85
2017-12-20T16:36:06.602Z,88.10
2017-12-20T16:38:34.500Z,88.10
2017-12-20T16:41:02.838Z,88.08
2017-12-20T16:43:30.625Z,87.65
2017-12-20T16:45:58.416Z,87.96
2017-12-20T16:48:26.136Z,87.67
2017-12-20T16:50:53.961Z,88.03
2017-12-20T16:53:33.349Z,87.91
2017-12-20T16:56:01.186Z,87.62
2017-12-20T16:58:28.924Z,87.82
2017-12-20T17:00:56.714Z,88.15
2017-12-20T17:03:24.520Z,88.36
2017-12-20T17:05:52.282Z,88.40
2017-12-20T17:08:20.460Z,88.53
2017-12-20T17:10:48.155Z,88.45
2017-12-20T17:13:15.961Z,87.85
2017-12-20T17:15:43.713Z,88.00
2017-12-20T17:18:11.502Z,87.88
2017-12-20T17:20:39.448Z,87.64
2017-12-20T17:23:07.237Z,87.75
2017-12-20T17:25:34.953Z,87.86
2017-12-20T17:28:02.771Z,87.57
2017-12-20T17:30:30.789Z,87.93
2017-12-20T17:32:58.552Z,88.53
2017-12-20T17:35:26.261Z,89.41
2017-12-20T17:37:54.050Z,89.96
2017-12-20T17:40:21.915Z,90.06
2017-12-20T17:42:50.102Z,89.75
2017-12-20T17:45:18.032Z,89.63
2017-12-20T17:47:45.869Z,88.98
2017-12-20T17:50:14.851Z,88.50
2017-12-20T17:52:42.648Z,87.89
2017-12-20T17:55:10.494Z,87.66
2017-12-20T17:57:38.220Z,87.73
2017-12-20T18:00:06.043Z,88.04
2017-12-20T18:02:33.840Z,88.26
2017-12-20T18:05:01.559Z,88.52
2017-12-20T18:07:30.122Z,88.44
2017-12-20T18:09:57.930Z,88.68
2017-12-20T18:12:25.695Z,88.76
2017-12-20T18:14:53.467Z,88.94
2017-12-20T18:17:21.292Z,89.28
2017-12-20T18:19:49.030Z,89.34
2017-12-20T18:22:17.122Z,89.23
2017-12-20T18:24:44.850Z,88.98
2017-12-20T18:27:12.628Z,88.96
2017-12-20T18:29:40.462Z,89.03
2017-12-20T18:32:08.925Z,88.89
2017-12-20T18:34:36.680Z,88.69
2017-12-20T18:37:04.530Z,89.20
2017-12-20T18:39:32.325Z,88.85
2017-12-20T18:42:01.296Z,88.98
2017-12-20T18:44:29.190Z,88.98
2017-12-20T18:46:58.076Z,88.88
2017-12-20T18:49:25.916Z,88.71
2017-12-20T18:51:54.572Z,88.58
2017-12-20T18:54:22.359Z,88.40
2017-12-20T18:56:50.160Z,88.82
2017-12-20T18:59:18.884Z,88.87
2017-12-20T19:01:46.651Z,88.60
2017-12-20T19:04:14.501Z,88.93
2017-12-20T19:06:42.290Z,89.43
2017-12-20T19:09:10.298Z,89.10
2017-12-20T19:11:39.221Z,89.26
2017-12-20T19:14:07.155Z,90.65
2017-12-20T19:16:34.988Z,89.61
2017-12-20T19:19:04.361Z,88.65
2017-12-20T19:21:32.165Z,88.65
2017-12-20T19:23:59.898Z,88.37
2017-12-20T19:26:27.765Z,88.18
2017-12-20T19:28:55.620Z,88.05
2017-12-20T19:31:23.345Z,88.43
2017-12-20T19:33:51.406Z,89.01
2017-12-20T19:36:19.191Z,89.33
2017-12-20T19:38:46.924Z,89.42
2017-12-20T19:41:14.693Z,89.86
2017-12-20T19:43:42.451Z,89.52
2017-12-20T19:46:10.204Z,89.83
2017-12-20T19:48:38.005Z,89.55
2017-12-20T19:51:05.751Z,89.08
2017-12-20T19:53:34.541Z,88.82
2017-12-20T19:56:02.355Z,87.92
2017-12-20T19:58:30.190Z,89.04
2017-12-20T20:00:57.997Z,89.28
2017-12-20T20:03:25.722Z,88.95
2017-12-20T20:05:53.508Z,88.50
2017-12-20T20:08:21.254Z,88.83
2017-12-20T20:10:48.998Z,88.84
2017-12-20T20:13:16.743Z,88.54
2017-12-20T20:15:44.686Z,88.63
2017-12-20T20:18:13.036Z,89.36
2017-12-20T20:20:40.754Z,89.58
2017-12-20T20:23:08.542Z,89.14
2017-12-20T20:25:36.288Z,88.63
2017-12-20T20:28:04.389Z,88.58
2017-12-20T20:30:32.976Z,88.75
2017-12-20T20:33:00.739Z,88.15
2017-12-20T20:35:28.517Z,88.12
2017-12-20T20:37:56.273Z,88.50
2017-12-20T20:40:23.970Z,89.18
2017-12-20T20:42:51.841Z,89.61
2017-12-20T20:45:19.538Z,89.49
2017-12-20T20:47:47.367Z,89.06
2017-12-20T20:50:15.129Z,88.84
2017-12-20T20:52:42.852Z,88.90
2017-12-20T20:55:11.218Z,89.04
2017-12-20T20:57:38.978Z,89.15
2017-12-20T21:00:07.067Z,88.67
2017-12-20T21:02:34.805Z,88.61
2017-12-20T21:05:02.512Z,88.84
2017-12-20T21:07:30.277Z,89.42
2017-12-20T21:09:58.017Z,89.16
2017-12-20T21:12:25.730Z,89.11
2017-12-20T21:14:53.513Z,89.11
2017-12-20T21:17:22.096Z,89.14
2017-12-20T21:19:49.887Z,89.92
2017-12-20T21:22:17.758Z,89.40
2017-12-20T21:24:45.505Z,89.11
2017-12-20T21:27:13.304Z,88.74
2017-12-20T21:29:40.995Z,88.77
2017-12-20T21:32:08.735Z,88.16
2017-12-20T21:34:36.495Z,88.19
2017-12-20T21:37:04.229Z,87.97
2017-12-20T21:39:32.077Z,87.59
2017-12-20T21:41:59.828Z,88.01
2017-12-20T21:44:27.570Z,88.42
2017-12-20T21:46:55.507Z,87.89
2017-12-20T21:49:23.357Z,87.60
2017-12-20T21:51:51.188Z,87.99
2017-12-20T21:54:19.798Z,87.79
2017-12-20T21:56:47.612Z,87.22
2017-12-20T21:59:15.915Z,87.45
2017-12-20T22:01:44.634Z,87.51
2017-12-20T22:04:12.510Z,87.08
2017-12-20T22:06:40.333Z,87.46
2017-12-20T22:09:08.096Z,87.25
2017-12-20T22:11:36.009Z,87.97
2017-12-20T22:14:03.740Z,87.82
2017-12-20T22:16:31.761Z,87.70
2017-12-20T22:18:59.457Z,87.32
2017-12-20T22:21:27.187Z,87.94
2017-12-20T22:23:54.992Z,88.27
2017-12-20T22:26:22.717Z,88.15
2017-12-20T22:28:50.637Z,87.73
2017-12-20T22:31:18.351Z,88.18
2017-12-20T22:33:46.165Z,88.19
2017-12-20T22:36:13.939Z,88.10
2017-12-20T22:38:41.658Z,88.42
2017-12-20T22:41:09.407Z,88.80
2017-12-20T22:43:37.111Z,88.59
2017-12-20T22:46:05.041Z,88.21
2017-12-20T22:48:32.937Z,88.73
2017-12-20T22:51:00.663Z,88.90
2017-12-20T22:53:28.422Z,88.93
2017-12-20T22:55:56.169Z,88.99
2017-12-20T22:58:23.935Z,88.76
2017-12-20T23:00:51.768Z,88.95
2017-12-20T23:03:19.628Z,88.87
2017-12-20T23:05:47.351Z,88.46
2017-12-20T23:08:15.074Z,88.15
2017-12-20T23:10:42.821Z,87.46
2017-12-20T23:13:10.561Z,87.71
2017-12-20T23:15:38.340Z,87.10
2017-12-20T23:18:06.054Z,87.12
2017-12-20T23:20:33.901Z,87.84
2017-12-20T23:23:01.576Z,87.79
2017-12-20T23:25:29.278Z,88.56
2017-12-20T23:27:57.822Z,88.14
2017-12-20T23:30:25.933Z,88.47
2017-12-20T23:32:53.723Z,88.63
2017-12-20T23:35:21.520Z,88.45
2017-12-20T23:37:49.211Z,88.23
2017-12-20T23:40:17.030Z,88.58
2017-12-20T23:42:44.764Z,88.65
2017-12-20T23:45:12.523Z,87.09
2017-12-20T23:47:40.241Z,87.06
2017-12-20T23:50:08.008Z,86.95
2017-12-20T23:52:35.783Z,86.77
2017-12-20T23:55:03.570Z,87.62
2017-12-20T23:57:31.303Z,87.93
2017-12-20T23:59:59.004Z,88.08
